Time;durP1;ratioP1;P1;durP2;ratioP2;P2;SDS_P1;SDS_P2;PMS_P1;PMS_P2;Temp;Humidity;BMP_temperature;BMP_pressure;BME280_temperature;BME280_humidity;BME280_pressure;Samples;Min_cycle;Max_cycle;Signal;HPM_P1;HPM_P2
2022/12/19 00:02:45;;;;;;;25.90;18.10;;;;;;;-2.69;100.00;150687.84;5015939;28;20435;-80
2022/12/19 00:05:30;;;;;;;29.93;18.87;;;;;;;-2.70;100.00;150685.28;5028427;28;20467;-80
2022/12/19 00:08:16;;;;;;;26.73;16.20;;;;;;;-2.66;100.00;150694.25;5018853;28;20448;-80
2022/12/19 00:11:03;;;;;;;30.60;17.87;;;;;;;-2.70;100.00;150685.28;5027712;28;20489;-79
2022/12/19 00:13:48;;;;;;;35.63;21.17;;;;;;;-2.72;100.00;150680.16;5029427;28;20521;-80
2022/12/19 00:16:33;;;;;;;31.00;19.93;;;;;;;-2.73;100.00;150676.34;5022831;28;20447;-80
2022/12/19 00:19:20;;;;;;;32.27;18.97;;;;;;;-2.72;100.00;150680.16;5010138;28;20408;-80
2022/12/19 00:22:06;;;;;;;31.23;19.20;;;;;;;-2.72;100.00;150680.16;5014821;28;21227;-80
2022/12/19 00:24:51;;;;;;;40.50;20.40;;;;;;;-2.71;100.00;150682.75;5015901;28;20455;-80
2022/12/19 00:27:36;;;;;;;32.83;21.00;;;;;;;-2.73;100.00;150676.34;5019921;28;20443;-80
2022/12/19 00:30:22;;;;;;;34.77;22.77;;;;;;;-2.77;100.00;150666.09;5030287;28;20451;-80
2022/12/19 00:33:07;;;;;;;29.60;19.60;;;;;;;-2.78;100.00;150663.56;5030142;28;20427;-80
2022/12/19 00:35:58;;;;;;;35.63;18.80;;;;;;;-2.77;100.00;150666.09;5029423;28;20538;-80
2022/12/19 00:38:43;;;;;;;34.97;20.07;;;;;;;-2.71;100.00;150682.75;5031788;28;20411;-80
2022/12/19 00:41:30;;;;;;;30.60;18.57;;;;;;;-2.60;100.00;150710.91;5029677;28;20485;-80
2022/12/19 00:44:15;;;;;;;26.93;19.27;;;;;;;-2.54;100.00;150726.25;5029722;28;20508;-80
2022/12/19 00:47:00;;;;;;;32.73;19.17;;;;;;;-2.53;100.00;150727.53;5020198;28;20501;-80
2022/12/19 00:49:46;;;;;;;37.80;20.40;;;;;;;-2.50;100.00;150736.50;5027490;28;20834;-81
2022/12/19 00:52:33;;;;;;;38.87;20.10;;;;;;;-2.50;100.00;150736.50;5024653;28;20460;-80
2022/12/19 00:55:18;;;;;;;34.53;20.90;;;;;;;-2.47;100.00;150742.91;5033120;28;20481;-79
2022/12/19 00:58:03;;;;;;;27.97;19.70;;;;;;;-2.43;100.00;150751.84;5029300;28;20415;-80
2022/12/19 01:00:49;;;;;;;29.63;18.87;;;;;;;-2.33;100.00;150777.50;5033534;28;20479;-80
2022/12/19 01:03:34;;;;;;;29.60;18.43;;;;;;;-2.32;100.00;150780.03;5028816;28;20435;-80
2022/12/19 01:06:20;;;;;;;32.60;19.70;;;;;;;-2.27;100.00;150792.81;5021852;28;20462;-80
2022/12/19 01:09:07;;;;;;;30.40;19.27;;;;;;;-2.26;100.00;150796.69;5022961;28;20444;-80
2022/12/19 01:14:56;;;;;;;30.27;18.60;;;;;;;-2.23;100.00;150803.09;5043177;28;20462;-79
2022/12/19 01:17:41;;;;;;;29.10;19.40;;;;;;;-2.25;100.00;150799.22;5033169;28;20443;-80
2022/12/19 01:20:27;;;;;;;29.00;20.80;;;;;;;-2.24;100.00;150801.81;5044342;28;20455;-80
2022/12/19 01:23:12;;;;;;;34.30;20.83;;;;;;;-2.28;100.00;150791.59;5024493;28;20690;-80
2022/12/19 01:25:59;;;;;;;31.73;19.87;;;;;;;-2.19;100.00;150813.31;5024474;28;20459;-80
2022/12/19 01:28:44;;;;;;;27.23;17.87;;;;;;;-2.21;100.00;150809.50;5034261;28;20442;-80
2022/12/19 01:31:30;;;;;;;33.30;20.33;;;;;;;-2.28;100.00;150790.28;5025795;28;20439;-80
2022/12/19 01:34:15;;;;;;;30.13;19.87;;;;;;;-2.31;100.00;150782.59;5026995;28;20426;-80
2022/12/19 01:37:00;;;;;;;33.33;19.60;;;;;;;-2.28;100.00;150790.28;5029691;28;20512;-80
2022/12/19 01:39:47;;;;;;;33.13;20.53;;;;;;;-2.18;100.00;150815.91;5025133;28;20451;-80
2022/12/19 01:42:36;;;;;;;33.93;20.77;;;;;;;-2.18;100.00;150815.91;5027201;28;20432;-80
2022/12/19 01:45:25;;;;;;;32.97;20.13;;;;;;;-2.20;100.00;150810.78;5031564;28;20514;-80
2022/12/19 01:48:18;;;;;;;35.17;21.03;;;;;;;-2.21;100.00;150808.19;5030798;28;20918;-80
2022/12/19 01:51:07;;;;;;;30.53;20.60;;;;;;;-2.23;100.00;150803.09;5031770;28;20455;-80
2022/12/19 01:53:57;;;;;;;30.37;21.27;;;;;;;-2.19;100.00;150813.31;5030764;28;20497;-80
2022/12/19 01:56:45;;;;;;;35.23;21.80;;;;;;;-2.20;100.00;150810.78;5032351;28;20448;-80
2022/12/19 01:59:34;;;;;;;32.33;20.73;;;;;;;-2.13;100.00;150830.00;5023953;28;20521;-80
2022/12/19 02:02:24;;;;;;;34.87;22.90;;;;;;;-2.17;100.00;150818.47;5042226;28;20450;-80
2022/12/19 02:05:10;;;;;;;31.87;22.50;;;;;;;-2.13;100.00;150830.00;5031318;28;20459;-80
2022/12/19 02:07:56;;;;;;;32.43;22.17;;;;;;;-2.14;100.00;150826.13;5032610;28;20559;-80
2022/12/19 02:10:41;;;;;;;34.80;23.17;;;;;;;-2.14;100.00;150827.41;5031074;28;20442;-80
2022/12/19 02:13:26;;;;;;;34.77;22.00;;;;;;;-2.17;100.00;150818.47;5026822;28;20510;-80
2022/12/19 02:16:20;;;;;;;39.67;22.30;;;;;;;-2.21;100.00;150808.19;5027654;28;20494;-80
2022/12/19 02:19:22;;;;;;;40.53;23.30;;;;;;;-2.18;100.00;150815.91;5013893;28;20528;-80
2022/12/19 02:22:10;;;;;;;33.63;23.43;;;;;;;-2.23;100.00;150803.09;5026792;28;20821;-80
2022/12/19 02:25:25;;;;;;;43.40;27.07;;;;;;;-2.24;100.00;150800.50;5032677;28;20427;-78
2022/12/19 02:28:32;;;;;;;36.20;23.97;;;;;;;-2.16;100.00;150821.00;5028864;28;20836;-78
2022/12/19 02:31:21;;;;;;;31.33;21.20;;;;;;;-2.17;100.00;150818.47;5030307;28;20439;-78
2022/12/19 02:34:14;;;;;;;34.67;22.23;;;;;;;-2.12;100.00;150831.28;5021932;28;20434;-78
2022/12/19 02:37:08;;;;;;;35.40;22.30;;;;;;;-2.15;100.00;150823.59;5034178;28;20431;-78
2022/12/19 02:39:56;;;;;;;39.47;23.20;;;;;;;-2.14;100.00;150826.13;5042820;28;21017;-80
2022/12/19 02:42:45;;;;;;;35.87;23.00;;;;;;;-2.13;100.00;150828.69;5030484;28;20429;-80
2022/12/19 02:45:32;;;;;;;40.73;25.90;;;;;;;-2.12;100.00;150831.28;5046757;28;20474;-79
2022/12/19 02:48:19;;;;;;;39.83;23.20;;;;;;;-2.08;100.00;150841.50;5033285;28;21001;-79
2022/12/19 02:51:05;;;;;;;43.60;25.80;;;;;;;-2.07;100.00;150844.06;5020618;28;20446;-79
2022/12/19 02:53:50;;;;;;;36.27;22.43;;;;;;;-2.05;100.00;150849.19;5028761;28;20533;-79
2022/12/19 02:56:43;;;;;;;31.63;22.17;;;;;;;-2.09;100.00;150838.97;5023789;28;20537;-79
2022/12/19 02:59:39;;;;;;;36.73;21.60;;;;;;;-2.01;100.00;150860.69;5046010;28;20435;-79
2022/12/19 03:02:30;;;;;;;31.37;20.83;;;;;;;-1.99;100.00;150864.56;5030266;28;20423;-79
2022/12/19 03:05:25;;;;;;;35.50;22.80;;;;;;;-1.90;100.00;150888.88;5013389;28;20800;-79
2022/12/19 03:08:21;;;;;;;30.13;19.70;;;;;;;-1.89;100.00;150890.19;5033468;28;20439;-79
2022/12/19 03:11:08;;;;;;;30.60;21.37;;;;;;;-1.85;100.00;150901.69;5023400;28;21008;-79
2022/12/19 03:13:55;;;;;;;31.80;19.80;;;;;;;-1.75;100.00;150926.06;5042631;28;20458;-79
2022/12/19 03:16:42;;;;;;;27.57;19.07;;;;;;;-1.79;100.00;150915.78;5027283;28;20481;-79
2022/12/19 03:19:27;;;;;;;35.83;21.87;;;;;;;-1.70;100.00;150937.59;5024002;28;20918;-79
2022/12/19 03:22:14;;;;;;;34.00;20.93;;;;;;;-1.72;100.00;150932.47;5030418;28;20581;-79
2022/12/19 03:24:59;;;;;;;29.50;20.10;;;;;;;-1.67;100.00;150946.56;5030565;28;20443;-79
2022/12/19 03:27:46;;;;;;;33.10;20.50;;;;;;;-1.70;100.00;150938.88;5032376;28;20739;-79
2022/12/19 03:30:31;;;;;;;35.07;20.10;;;;;;;-1.68;100.00;150943.97;5023203;28;20454;-79
2022/12/19 03:33:18;;;;;;;33.50;19.50;;;;;;;-1.63;100.00;150956.78;5023568;28;20484;-79
2022/12/19 03:36:07;;;;;;;30.13;19.87;;;;;;;-1.63;100.00;150956.78;5023579;28;20494;-79
2022/12/19 03:38:54;;;;;;;33.60;22.97;;;;;;;-1.52;100.00;150985.00;5018378;28;20442;-79
2022/12/19 03:44:44;;;;;;;31.83;19.73;;;;;;;-1.57;100.00;150972.19;5012594;28;20443;-79
2022/12/19 03:47:32;;;;;;;37.07;21.00;;;;;;;-1.54;100.00;150979.88;5026697;28;20812;-79
2022/12/19 03:50:18;;;;;;;34.70;20.80;;;;;;;-1.53;100.00;150982.41;5031732;28;20930;-79
2022/12/19 03:53:11;;;;;;;30.90;20.63;;;;;;;-1.54;100.00;150979.88;5019507;28;20777;-79
2022/12/19 03:56:06;;;;;;;28.87;18.97;;;;;;;-1.49;100.00;150992.69;5013871;28;20990;-79
2022/12/19 03:58:55;;;;;;;31.40;18.50;;;;;;;-1.46;100.00;151000.38;5028313;28;20962;-79
2022/12/19 04:01:41;;;;;;;26.70;19.47;;;;;;;-1.47;100.00;150997.81;5031178;28;20488;-79
2022/12/19 04:04:27;;;;;;;35.83;21.70;;;;;;;-1.36;100.00;151026.00;5031561;28;20529;-79
2022/12/19 04:07:12;;;;;;;32.40;20.23;;;;;;;-1.32;100.00;151036.22;5029873;28;20469;-79
2022/12/19 04:09:59;;;;;;;27.33;18.20;;;;;;;-1.32;100.00;151034.94;5026170;28;20447;-79
2022/12/19 04:12:50;;;;;;;29.67;19.00;;;;;;;-1.29;100.00;151042.66;5016699;28;20511;-79
2022/12/19 04:15:46;;;;;;;39.87;20.90;;;;;;;-1.29;100.00;151042.66;5016774;28;20451;-79
2022/12/19 04:18:33;;;;;;;31.80;19.50;;;;;;;-1.36;100.00;151026.00;5026976;28;20530;-79
2022/12/19 04:21:21;;;;;;;29.17;19.37;;;;;;;-1.29;100.00;151042.66;5031011;28;20964;-79
2022/12/19 04:24:11;;;;;;;31.10;19.50;;;;;;;-1.24;100.00;151056.75;5029109;28;20489;-79
2022/12/19 04:26:57;;;;;;;30.67;19.10;;;;;;;-1.18;100.00;151070.84;5030714;28;20451;-79
2022/12/19 04:29:44;;;;;;;30.53;20.13;;;;;;;-1.19;100.00;151067.03;5033224;28;20585;-79
2022/12/19 04:32:30;;;;;;;28.90;18.20;;;;;;;-1.16;100.00;151074.66;5022172;28;21013;-79
2022/12/19 04:35:16;;;;;;;29.60;19.70;;;;;;;-1.11;100.00;151087.53;5021670;28;20454;-79
2022/12/19 04:38:01;;;;;;;32.90;19.63;;;;;;;-1.14;100.00;151079.84;5033923;28;20518;-79
2022/12/19 04:40:46;;;;;;;28.70;19.73;;;;;;;-1.08;100.00;151096.47;5035036;28;20435;-79
2022/12/19 04:43:32;;;;;;;28.90;18.97;;;;;;;-1.12;100.00;151084.97;5033222;28;20443;-79
2022/12/19 04:46:18;;;;;;;25.20;17.93;;;;;;;-1.04;100.00;151105.47;5034922;28;20483;-79
2022/12/19 04:49:03;;;;;;;31.57;20.10;;;;;;;-1.02;100.00;151110.59;5028376;28;20778;-79
2022/12/19 04:51:49;;;;;;;28.33;19.70;;;;;;;-1.03;100.00;151108.06;5029301;28;20458;-79
2022/12/19 04:54:34;;;;;;;31.67;21.30;;;;;;;-1.02;100.00;151111.88;5023829;28;20478;-79
2022/12/19 04:57:20;;;;;;;30.37;19.10;;;;;;;-0.90;100.00;151141.38;5032208;28;20427;-79
2022/12/19 05:00:07;;;;;;;34.17;18.93;;;;;;;-0.94;100.00;151131.09;5020834;28;20470;-79
2022/12/19 05:02:54;;;;;;;31.67;20.17;;;;;;;-0.96;100.00;151127.28;5028799;28;20434;-79
2022/12/19 05:05:39;;;;;;;30.03;20.33;;;;;;;-0.94;100.00;151132.38;5024603;28;20447;-79
2022/12/19 05:08:24;;;;;;;29.63;20.00;;;;;;;-0.91;100.00;151138.78;5031743;28;20414;-79
2022/12/19 05:11:11;;;;;;;31.10;20.83;;;;;;;-0.93;100.00;151133.69;5021253;28;20811;-79
2022/12/19 05:13:58;;;;;;;31.77;20.73;;;;;;;-0.95;100.00;151129.81;5027867;28;20450;-79
2022/12/19 05:16:43;;;;;;;29.00;20.40;;;;;;;-0.85;100.00;151154.19;5012839;28;20758;-79
2022/12/19 05:19:30;;;;;;;27.70;18.10;;;;;;;-0.84;100.00;151156.72;5029491;28;20661;-79
2022/12/19 05:22:16;;;;;;;29.70;19.70;;;;;;;-0.85;100.00;151155.44;5030225;28;20904;-79
2022/12/19 05:25:01;;;;;;;28.07;18.77;;;;;;;-0.75;100.00;151179.84;5035592;28;20537;-79
2022/12/19 05:27:46;;;;;;;30.20;19.47;;;;;;;-0.80;100.00;151168.31;5030981;28;20510;-79
2022/12/19 05:30:32;;;;;;;32.57;20.60;;;;;;;-0.83;100.00;151159.31;5020183;28;20439;-80
2022/12/19 05:33:17;;;;;;;33.33;21.97;;;;;;;-0.81;100.00;151164.44;5033380;28;20439;-79
2022/12/19 05:36:05;;;;;;;33.33;21.00;;;;;;;-0.84;100.00;151156.72;5034791;28;20466;-79
2022/12/19 05:38:50;;;;;;;30.33;19.33;;;;;;;-0.83;100.00;151159.31;5015064;28;20556;-79
2022/12/19 05:41:36;;;;;;;34.30;21.37;;;;;;;-0.86;100.00;151151.63;5026086;28;20517;-79
2022/12/19 05:44:21;;;;;;;33.13;21.17;;;;;;;-0.85;100.00;151155.44;5023931;28;20954;-79
2022/12/19 05:47:06;;;;;;;36.97;26.02;;;;;;;-0.83;100.00;151159.31;5020465;28;20567;-79
2022/12/19 05:49:51;;;;;;;31.90;23.03;;;;;;;-0.78;100.00;151173.44;5024301;28;20344;-78
2022/12/19 05:52:38;;;;;;;33.93;22.17;;;;;;;-0.81;100.00;151164.44;5023148;28;20435;-79
2022/12/19 05:55:24;;;;;;;29.70;21.00;;;;;;;-0.79;100.00;151169.56;5026587;28;20486;-79
2022/12/19 05:58:09;;;;;;;33.97;22.50;;;;;;;-0.76;100.00;151177.25;5011846;28;20448;-79
2022/12/19 06:00:54;;;;;;;27.63;20.70;;;;;;;-0.83;100.00;151159.31;5020046;28;20841;-79
2022/12/19 06:03:40;;;;;;;31.00;20.00;;;;;;;-0.80;100.00;151167.00;5017145;28;20906;-79
2022/12/19 06:06:26;;;;;;;33.37;22.30;;;;;;;-0.78;100.00;151173.44;5019327;28;20599;-79
2022/12/19 06:09:13;;;;;;;28.00;20.17;;;;;;;-0.77;100.00;151174.72;5020287;28;20775;-79
2022/12/19 06:11:58;;;;;;;29.30;20.10;;;;;;;-0.75;100.00;151181.13;5025691;28;20439;-80
2022/12/19 06:14:44;;;;;;;30.80;19.60;;;;;;;-0.72;100.00;151187.53;5043481;28;20453;-79
2022/12/19 06:17:29;;;;;;;29.97;20.30;;;;;;;-0.71;100.00;151190.06;5026231;28;20759;-79
2022/12/19 06:20:15;;;;;;;34.90;21.00;;;;;;;-0.70;100.00;151192.66;5047213;28;20796;-80
2022/12/19 06:23:01;;;;;;;31.37;21.30;;;;;;;-0.71;100.00;151191.34;5041853;28;20443;-80
2022/12/19 06:25:47;;;;;;;35.17;21.57;;;;;;;-0.74;100.00;151182.38;5033287;28;20447;-79
2022/12/19 06:28:33;;;;;;;29.83;20.27;;;;;;;-0.75;100.00;151179.84;5031617;28;20483;-79
2022/12/19 06:31:20;;;;;;;32.00;22.87;;;;;;;-0.75;100.00;151179.84;5033397;28;20451;-79
2022/12/19 06:34:05;;;;;;;31.20;23.17;;;;;;;-0.72;100.00;151187.53;5013799;28;20401;-79
2022/12/19 06:36:50;;;;;;;33.70;22.53;;;;;;;-0.73;100.00;151184.94;5018559;28;20991;-80
2022/12/19 06:39:36;;;;;;;32.30;21.77;;;;;;;-0.66;100.00;151204.19;5031149;28;20446;-79
2022/12/19 06:42:24;;;;;;;35.00;20.43;;;;;;;-0.62;100.00;151213.19;5033006;28;20435;-79
2022/12/19 06:45:10;;;;;;;31.10;18.87;;;;;;;-0.59;100.00;151220.88;5032628;28;20960;-79
2022/12/19 06:47:56;;;;;;;31.63;20.20;;;;;;;-0.58;100.00;151223.41;5013509;28;20483;-79
2022/12/19 06:50:41;;;;;;;29.13;20.17;;;;;;;-0.53;100.00;151236.22;5032245;28;20447;-79
2022/12/19 06:53:27;;;;;;;29.83;20.50;;;;;;;-0.52;100.00;151238.81;5032613;28;20865;-79
2022/12/19 06:56:14;;;;;;;32.97;20.60;;;;;;;-0.50;100.00;151243.94;5029465;28;20482;-79
2022/12/19 06:59:01;;;;;;;25.90;17.93;;;;;;;-0.41;100.00;151267.03;5021836;28;20522;-79
2022/12/19 07:01:55;;;;;;;34.20;21.30;;;;;;;-0.42;100.00;151264.47;5023335;28;20438;-79
2022/12/19 07:04:43;;;;;;;33.83;21.00;;;;;;;-0.38;100.00;151274.75;5030260;28;20513;-79
2022/12/19 07:07:28;;;;;;;27.13;19.63;;;;;;;-0.35;100.00;151281.16;5017569;28;20463;-79
2022/12/19 07:10:14;;;;;;;33.73;21.63;;;;;;;-0.34;100.00;151283.69;5030393;28;20794;-79
2022/12/19 07:13:00;;;;;;;33.53;20.67;;;;;;;-0.34;100.00;151284.97;5029513;28;20984;-79
2022/12/19 07:15:46;;;;;;;34.00;20.37;;;;;;;-0.30;100.00;151295.28;5028960;28;20454;-79
2022/12/19 07:18:36;;;;;;;26.60;18.37;;;;;;;-0.18;100.00;151326.03;5030276;28;20435;-81
2022/12/19 07:21:22;;;;;;;28.37;19.97;;;;;;;-0.20;100.00;151320.91;5028658;28;20518;-79
2022/12/19 07:24:07;;;;;;;28.10;17.63;;;;;;;-0.24;100.00;151310.63;5022394;28;20486;-80
2022/12/19 07:26:53;;;;;;;33.70;19.30;;;;;;;-0.17;100.00;151328.63;5022198;28;20458;-80
2022/12/19 07:29:38;;;;;;;25.80;17.60;;;;;;;-0.11;100.00;151342.75;5021132;28;20790;-81
2022/12/19 07:32:25;;;;;;;33.03;19.00;;;;;;;-0.07;100.00;151352.97;5011273;28;20495;-80
2022/12/19 07:35:10;;;;;;;30.97;18.70;;;;;;;-0.09;100.00;151349.16;5018594;28;20459;-80
2022/12/19 07:38:01;;;;;;;29.80;19.00;;;;;;;-0.05;100.00;151358.09;5037475;28;20404;-80
2022/12/19 07:40:46;;;;;;;28.27;18.40;;;;;;;-0.03;100.00;151363.28;5031618;28;20443;-79
2022/12/19 07:43:31;;;;;;;30.57;18.80;;;;;;;-0.02;100.00;151367.09;5051869;28;20783;-80
2022/12/19 07:46:17;;;;;;;25.10;17.33;;;;;;;0.06;100.00;151385.06;5026761;28;20529;-80
2022/12/19 07:49:04;;;;;;;28.60;18.40;;;;;;;0.03;100.00;151377.41;5020783;28;20949;-80
2022/12/19 07:51:49;;;;;;;29.10;17.70;;;;;;;0.01;100.00;151373.53;5020625;28;20439;-80
2022/12/19 07:54:34;;;;;;;30.70;17.40;;;;;;;0.13;100.00;151403.06;5017683;28;20478;-79
2022/12/19 07:57:20;;;;;;;29.90;18.20;;;;;;;0.18;100.00;151415.88;5026939;28;20439;-80
2022/12/19 08:00:07;;;;;;;31.13;20.50;;;;;;;0.19;100.00;151419.72;5025552;28;20537;-80
2022/12/19 08:02:58;;;;;;;28.40;19.37;;;;;;;0.20;100.00;151421.00;5019982;28;20451;-81
2022/12/19 08:05:45;;;;;;;32.70;18.33;;;;;;;0.23;100.00;151428.72;5022818;28;20950;-80
2022/12/19 08:08:31;;;;;;;27.17;18.13;;;;;;;0.29;100.00;151444.13;5021948;28;20623;-80
2022/12/19 08:11:21;;;;;;;29.60;17.97;;;;;;;0.31;100.00;151450.53;5019963;28;20609;-80
2022/12/19 08:14:06;;;;;;;29.30;17.50;;;;;;;0.35;100.00;151459.50;5023124;28;20509;-80
2022/12/19 08:16:51;;;;;;;33.03;19.60;;;;;;;0.41;100.00;151474.91;5026325;28;20446;-80
2022/12/19 08:19:37;;;;;;;29.77;19.57;;;;;;;0.42;100.00;151478.78;5026892;28;20462;-81
2022/12/19 08:22:23;;;;;;;31.43;18.83;;;;;;;0.49;100.00;151495.44;5026480;28;20451;-81
2022/12/19 08:25:09;;;;;;;26.40;18.63;;;;;;;0.50;100.00;151498.03;5026976;28;20459;-81
2022/12/19 08:27:55;;;;;;;29.33;18.27;;;;;;;0.50;100.00;151498.03;5029501;28;20517;-81
2022/12/19 08:30:40;;;;;;;27.03;16.87;;;;;;;0.51;100.00;151501.88;5026216;28;20458;-81
2022/12/19 08:33:26;;;;;;;22.47;16.10;;;;;;;0.46;100.00;151489.03;5025897;28;20930;-81
2022/12/19 08:36:13;;;;;;;29.97;17.17;;;;;;;0.55;100.00;151512.16;5029264;28;20517;-81
2022/12/19 08:39:00;;;;;;;26.10;17.40;;;;;;;0.65;100.00;151536.53;5026789;28;20525;-82
2022/12/19 08:41:46;;;;;;;25.13;16.00;;;;;;;0.71;100.00;151551.97;5028077;28;20415;-81
2022/12/19 08:44:31;;;;;;;24.40;14.90;;;;;;;0.75;100.00;151562.22;5023522;28;20442;-82
2022/12/19 08:47:16;;;;;;;23.80;16.30;;;;;;;0.80;100.00;151575.03;5023327;28;20483;-81
2022/12/19 08:50:02;;;;;;;22.10;15.00;;;;;;;0.80;100.00;151575.03;5024359;28;20454;-81
2022/12/19 08:52:47;;;;;;;24.83;15.63;;;;;;;0.83;100.00;151582.75;5030404;28;20488;-82
2022/12/19 08:55:35;;;;;;;21.50;15.87;;;;;;;0.89;100.00;151598.19;5026306;28;20824;-83
2022/12/19 08:58:20;;;;;;;19.47;13.67;;;;;;;0.92;100.00;151604.59;5028265;28;20439;-82
2022/12/19 09:01:08;;;;;;;21.63;14.90;;;;;;;0.98;100.00;151621.28;5020432;28;20650;-82
2022/12/19 09:03:58;;;;;;;21.90;14.37;;;;;;;1.05;100.00;151638.00;5023012;28;20981;-82
2022/12/19 09:06:43;;;;;;;23.23;14.63;;;;;;;1.06;100.00;151641.81;5021970;28;20450;-81
2022/12/19 09:09:28;;;;;;;19.80;14.30;;;;;;;1.09;100.00;151649.53;5010521;28;20527;-82
2022/12/19 09:12:16;;;;;;;21.37;15.20;;;;;;;1.13;100.00;151659.84;5010295;28;20538;-82
2022/12/19 09:15:01;;;;;;;23.03;14.93;;;;;;;1.12;100.00;151657.25;5023845;28;20454;-82
2022/12/19 09:17:46;;;;;;;21.77;13.57;;;;;;;1.13;100.00;151659.84;5033129;28;20436;-82
2022/12/19 09:20:32;;;;;;;24.17;16.73;;;;;;;1.16;100.00;151667.56;5019902;28;20654;-83
2022/12/19 09:23:17;;;;;;;21.20;15.67;;;;;;;1.19;100.00;151675.22;5029120;28;20935;-83
2022/12/19 09:26:05;;;;;;;22.20;16.00;;;;;;;1.22;100.00;151682.94;5024638;28;20614;-83
2022/12/19 09:28:52;;;;;;;26.07;17.10;;;;;;;1.28;100.00;151695.78;5033320;28;20498;-83
2022/12/19 09:31:39;;;;;;;29.37;17.30;;;;;;;1.31;100.00;151703.50;5017307;28;20460;-74
2022/12/19 09:34:25;;;;;;;26.30;18.20;;;;;;;1.32;100.00;151707.38;5018508;28;20544;-74
2022/12/19 09:37:11;;;;;;;23.00;16.50;;;;;;;1.36;100.00;151717.63;5019336;28;20494;-74
2022/12/19 09:39:57;;;;;;;23.00;17.80;;;;;;;1.41;100.00;151729.16;5019547;28;20467;-74
2022/12/19 09:42:55;;;;;;;24.30;17.53;;;;;;;1.39;100.00;151725.34;5028064;28;20482;-73
2022/12/19 09:45:53;;;;;;;26.53;18.17;;;;;;;1.39;100.00;151724.03;5021567;28;20447;-73
2022/12/19 09:48:39;;;;;;;26.33;19.00;;;;;;;1.43;100.00;151735.59;5030569;28;20483;-73
2022/12/19 09:51:32;;;;;;;22.03;15.53;;;;;;;1.48;100.00;151748.50;5039236;28;20459;-74
2022/12/19 09:54:22;;;;;;;23.47;15.73;;;;;;;1.62;100.00;151784.44;5013246;28;20912;-75
2022/12/19 09:57:14;;;;;;;23.33;15.90;;;;;;;1.65;100.00;151790.84;5013770;28;21027;-73
2022/12/19 10:00:03;;;;;;;29.07;18.77;;;;;;;1.69;100.00;151801.16;5031026;28;20443;-74
2022/12/19 10:03:00;;;;;;;24.60;17.40;;;;;;;1.67;100.00;151797.28;5032466;28;20570;-75
2022/12/19 10:05:49;;;;;;;25.40;18.03;;;;;;;1.77;100.00;151821.72;5032768;28;20934;-74
2022/12/19 10:08:37;;;;;;;25.50;18.10;;;;;;;1.84;100.00;151839.72;5015590;28;20475;-74
2022/12/19 10:11:37;;;;;;;23.80;18.03;;;;;;;1.94;100.00;151865.41;5044036;28;20533;-74
2022/12/19 10:14:33;;;;;;;29.43;18.90;;;;;;;2.00;100.00;151880.84;5030500;28;20455;-73
2022/12/19 10:17:26;;;;;;;23.80;18.00;;;;;;;2.06;100.00;151895.00;5031912;28;21001;-73
2022/12/19 10:20:17;;;;;;;29.53;20.60;;;;;;;2.09;100.00;151903.94;5020416;28;20455;-75
2022/12/19 10:23:17;;;;;;;25.63;18.10;;;;;;;2.19;100.00;151928.41;5025871;28;20431;-74
2022/12/19 10:26:06;;;;;;;27.60;16.27;;;;;;;2.23;100.00;151938.66;5031577;28;20454;-74
2022/12/19 10:29:02;;;;;;;22.97;16.60;;;;;;;2.34;100.00;151968.25;5031399;28;20470;-74
2022/12/19 10:31:53;;;;;;;25.73;18.37;;;;;;;2.39;100.00;151981.13;5013687;28;20967;-74
2022/12/19 10:34:42;;;;;;;24.87;18.73;;;;;;;2.45;100.00;151996.56;5024090;28;20451;-75
2022/12/19 10:37:30;;;;;;;24.50;17.23;;;;;;;2.46;100.00;151997.84;5031160;28;20442;-74
2022/12/19 10:40:22;;;;;;;22.47;17.77;;;;;;;2.43;100.00;151991.44;5016188;28;20448;-75
2022/12/19 10:43:12;;;;;;;19.30;14.50;;;;;;;2.42;100.00;151987.53;5050161;28;20459;-75
2022/12/19 10:46:01;;;;;;;25.60;17.27;;;;;;;2.54;100.00;152017.16;5031431;28;20503;-75
2022/12/19 10:48:46;;;;;;;23.07;17.23;;;;;;;2.53;100.00;152015.84;5028118;28;20464;-75
2022/12/19 10:51:32;;;;;;;26.83;18.37;;;;;;;2.57;100.00;152024.88;5012793;28;20400;-75
2022/12/19 10:54:19;;;;;;;21.77;16.33;;;;;;;2.61;100.00;152035.13;5013256;28;20527;-76
2022/12/19 10:57:18;;;;;;;18.53;13.00;;;;;;;2.59;100.00;152030.00;5013434;28;20946;-75
2022/12/19 11:00:14;;;;;;;18.40;13.27;;;;;;;2.59;100.00;152030.00;5012758;28;20456;-75
2022/12/19 11:03:08;;;;;;;19.80;14.37;;;;;;;2.57;100.00;152024.88;5023534;28;20432;-75
2022/12/19 11:05:55;;;;;;;19.97;13.00;;;;;;;2.50;100.00;152006.84;5022769;28;21410;-75
2022/12/19 11:08:41;;;;;;;21.03;14.77;;;;;;;2.44;100.00;151992.69;5032366;28;20974;-74
2022/12/19 11:11:34;;;;;;;17.60;13.07;;;;;;;2.47;100.00;152000.41;5027024;28;20443;-75
2022/12/19 11:14:21;;;;;;;22.27;13.10;;;;;;;2.54;100.00;152017.16;5030028;28;21025;-75
2022/12/19 11:17:24;;;;;;;14.23;12.20;;;;;;;2.49;100.00;152004.28;5030519;28;20581;-75
2022/12/19 11:20:14;;;;;;;21.33;15.17;;;;;;;2.50;100.00;152006.84;5023504;28;20558;-75
2022/12/19 11:23:00;;;;;;;19.00;14.33;;;;;;;2.53;100.00;152015.84;5015348;28;20510;-74
2022/12/19 11:25:53;;;;;;;20.30;14.50;;;;;;;2.54;100.00;152017.16;5026636;28;20439;-75
2022/12/19 11:28:40;;;;;;;21.20;15.00;;;;;;;2.54;100.00;152017.16;5057933;28;20799;-75
2022/12/19 11:31:27;;;;;;;17.93;14.60;;;;;;;2.59;100.00;152030.00;5030667;28;20899;-74
2022/12/19 11:34:16;;;;;;;20.37;15.70;;;;;;;2.62;100.00;152037.72;5032964;28;20403;-75
2022/12/19 11:37:12;;;;;;;19.07;15.10;;;;;;;2.73;100.00;152065.97;5026074;28;20566;-75
2022/12/19 11:40:22;;;;;;;19.33;14.40;;;;;;;2.80;100.00;152084.03;4985341;28;74249;-75
2022/12/19 11:43:31;;;;;;;19.87;16.10;;;;;;;2.83;100.00;152091.75;5013101;28;20412;-75
2022/12/19 11:46:40;;;;;;;21.27;16.17;;;;;;;2.85;100.00;152096.88;5020073;28;20509;-74
2022/12/19 11:49:48;;;;;;;22.83;18.30;;;;;;;2.90;100.00;152109.75;5016788;28;20474;-74
2022/12/19 11:52:56;;;;;;;23.70;17.17;;;;;;;2.92;100.00;152114.88;5031437;28;20412;-74
2022/12/19 11:56:05;;;;;;;23.30;16.60;;;;;;;2.93;100.00;152117.47;5019575;28;20843;-74
2022/12/19 11:59:17;;;;;;;19.53;15.37;;;;;;;2.92;100.00;152116.16;5022528;28;20454;-75
2022/12/19 12:02:48;;;;;;;20.33;16.50;;;;;;;2.97;100.00;152129.03;5018890;28;20447;-74
2022/12/19 12:05:54;;;;;;;26.07;17.17;;;;;;;3.01;100.00;152139.34;5026534;28;20484;-75
2022/12/19 12:09:24;;;;;;;22.93;17.57;;;;;;;2.99;100.00;152134.16;5023966;28;20574;-74
2022/12/19 12:12:31;;;;;;;25.47;19.50;;;;;;;3.02;100.00;152141.91;5027166;28;20497;-75
2022/12/19 12:15:50;;;;;;;24.53;19.53;;;;;;;3.07;100.00;152153.50;5019588;28;20486;-74
2022/12/19 12:19:04;;;;;;;27.90;19.00;;;;;;;3.04;100.00;152147.03;5024997;28;20633;-74
2022/12/19 12:22:17;;;;;;;25.30;18.33;;;;;;;3.08;100.00;152156.06;5019620;28;20520;-74
2022/12/19 12:25:30;;;;;;;26.40;19.27;;;;;;;3.19;100.00;152183.06;5028429;28;21278;-75
2022/12/19 12:28:48;;;;;;;25.83;16.10;;;;;;;3.34;100.00;152222.97;5022929;28;20493;-75
2022/12/19 12:32:04;;;;;;;23.07;16.60;;;;;;;3.45;100.00;152251.28;5028615;28;21077;-75
2022/12/19 12:35:19;;;;;;;23.03;16.63;;;;;;;3.52;100.00;152268.03;5024192;28;20486;-75
2022/12/19 12:38:35;;;;;;;26.50;19.60;;;;;;;3.42;100.00;152243.56;5019647;28;20428;-74
2022/12/19 12:42:04;;;;;;;36.43;26.77;;;;;;;3.34;100.00;152221.66;5025565;28;20455;-74
2022/12/19 12:45:18;;;;;;;28.27;21.47;;;;;;;3.27;100.00;152204.97;5022519;28;20810;-75
2022/12/19 12:48:26;;;;;;;25.50;18.87;;;;;;;3.26;100.00;152202.38;5025452;28;20498;-75
2022/12/19 12:51:33;;;;;;;22.90;17.70;;;;;;;3.22;100.00;152192.09;5023080;28;20558;-75
2022/12/19 12:54:39;;;;;;;22.83;17.00;;;;;;;3.23;100.00;152194.63;5028728;28;21073;-75